Chelsea, OK (74016)

10:23 PM CDT on October 01, 2014 (GMT -0500)
KOKCHELS2 | Change Station
CLOSE
Current Station
Personal Weather Station
Location: Chelsea, OK
Elevation: 840 ft
Nearby Weather Stations

Elev 840 ft 36.42 °N, 95.43 °W | Updated 23 minutes ago

Clear
Clear
77.4 °F
Feels Like 79 °F
N
2.0
Wind Variable Wind from SSW
Gusts 7.0 mph

Today
High -- | Low -- °F
--% Chance of Precip.
Yesterday
High -- | Low -- °F
Precip. -- in
7:17 AM 7:05 PM
First Quarter, 54% visible
Pressure 29.83 in
Visibility 10.0 miles
Clouds Clear
Heat Index 79 °F
Dew Point 70 °F
Humidity 79%
Rainfall 0.00 in
Snow Depth Not available.
UV 0 out of 12
Pollen 7.90 out of 12
Air Quality Not available.
Flu Activity Not available.
METAR KGCM 010335Z AUTO 13005KT 10SM CLR 20/17 A2983 RMK AO2

More Conditions Fewer Conditions

Pressure 29.83 in
Visibility 10.0 miles
Clouds Clear
Heat Index 79 °F
Dew Point 70 °F
Humidity 79%
Rainfall 0.00 in
Snow Depth Not available.
UV 0 out of 12
Pollen 7.90 out of 12
Air Quality Not available.
Flu Activity Not available.
METAR KGCM 010335Z AUTO 13005KT 10SM CLR 20/17 A2983 RMK AO2

More Conditions Fewer Conditions

10-Day Weather Forecast

Almanac

Astronomy

Oct. 01, 2014 Rise Set
Actual Time 7:17 AM CDT 7:05 PM CDT
Civil Twilight 6:51 AM CDT 7:30 PM CDT
Nautical Twilight 6:21 AM CDT 8:00 PM CDT
Astronomical Twilight 5:51 AM CDT 8:30 PM CDT
Moon 2:11 PM CDT (10/1) No Moon Set
Length of Visible Light 12h 39m
Length of Day
11h 48m
Tomorrow will be 2m 18s shorter.
First Quarter, 54% of the Moon is Illuminated
Today
First Quarter
Oct 8
Full
Oct 15
Last Quarter
Oct 23
New
Oct 30
First Quarter

Today's Extremes

State Highs State Lows

Community

WunderPhotos

Upload Photos

1,758,161 photos uploaded!

WunderBlogs® & News

Nearby

Snow Depth

Station Depth Elevation
No new snow has been reported.

Earthquake Activity

City Distance Mag. Time & Date
Perry, Oklahoma 103 miles 2.6 8:20 PM CDT
2014-10-01
Guthrie, Oklahoma 119 miles 3.0 5:15 PM CDT
2014-10-01
Perry, Oklahoma 95 miles 2.8 4:17 PM CDT
2014-10-01
Parsons, Kansas 58 miles 3.0 7:33 PM CDT
2014-09-30
Minimum magnitude displayed is 2.5.

Coastal Water Temperatures

Place Temperature
No Stations Reporting

Nearby Weather Stations